Time;durP1;ratioP1;P1;durP2;ratioP2;P2;SDS_P1;SDS_P2;PMS_P1;PMS_P2;Temp;Humidity;BMP_temperature;BMP_pressure;BME280_temperature;BME280_humidity;BME280_pressure;Samples;Min_cycle;Max_cycle;Signal;HPM_P1;HPM_P2
2021/06/13 00:00:31;;;;;;;12.55;9.85;;;;;;;24.22;56.28;100458.78;5067716;28;20035;-62
2021/06/13 00:02:57;;;;;;;13.60;10.85;;;;;;;24.09;56.45;100450.56;5074924;28;20028;-60
2021/06/13 00:05:22;;;;;;;12.52;11.00;;;;;;;24.04;56.52;100443.34;5070450;28;20035;-60
2021/06/13 00:07:48;;;;;;;12.05;10.77;;;;;;;24.12;56.33;100463.78;5071756;28;20042;-60
2021/06/13 00:10:15;;;;;;;12.38;10.57;;;;;;;24.08;56.75;100460.13;5070029;28;20013;-60
2021/06/13 00:12:41;;;;;;;16.25;11.10;;;;;;;24.06;57.01;100459.69;5071153;28;20028;-60
2021/06/13 00:15:10;;;;;;;14.15;10.73;;;;;;;24.06;57.07;100459.69;5071977;28;20039;-60
2021/06/13 00:17:35;;;;;;;13.50;11.10;;;;;;;24.02;57.08;100459.63;5072617;28;20020;-59
2021/06/13 00:20:07;;;;;;;12.07;10.77;;;;;;;24.01;57.21;100455.22;5073487;28;20024;-62
2021/06/13 00:22:32;;;;;;;11.80;10.60;;;;;;;24.00;57.03;100455.59;5057098;28;20117;-60
2021/06/13 00:24:58;;;;;;;11.20;10.02;;;;;;;23.98;57.01;100455.97;5063391;28;20055;-60
2021/06/13 00:27:23;;;;;;;11.88;9.98;;;;;;;23.96;57.09;100458.31;5063911;28;20108;-59
2021/06/13 00:29:49;;;;;;;11.63;9.95;;;;;;;23.96;57.43;100451.94;5063880;28;20013;-60
2021/06/13 00:32:14;;;;;;;12.40;9.45;;;;;;;23.96;57.46;100457.50;5072206;28;20031;-60
2021/06/13 00:34:39;;;;;;;10.38;9.35;;;;;;;23.94;57.44;100466.22;5067400;28;20090;-60
2021/06/13 00:37:05;;;;;;;12.07;9.50;;;;;;;23.91;57.72;100450.22;5069538;28;20021;-59
2021/06/13 00:39:30;;;;;;;12.75;10.63;;;;;;;23.89;57.30;100456.16;5069919;28;20028;-61
2021/06/13 00:41:56;;;;;;;12.15;9.30;;;;;;;23.86;57.73;100454.13;5058639;28;20087;-59
2021/06/13 00:44:22;;;;;;;14.25;9.85;;;;;;;23.87;57.61;100452.94;5062338;28;20063;-59
2021/06/13 00:46:47;;;;;;;11.30;8.55;;;;;;;23.85;57.50;100446.13;5066017;28;20116;-59
2021/06/13 00:49:12;;;;;;;11.30;9.15;;;;;;;23.82;57.72;100447.69;5068667;28;20063;-60
2021/06/13 00:51:38;;;;;;;11.57;9.27;;;;;;;23.82;57.93;100438.50;5061151;28;20112;-60
2021/06/13 00:54:04;;;;;;;10.90;9.70;;;;;;;23.80;57.89;100436.09;5067713;28;20032;-59
2021/06/13 00:56:29;;;;;;;10.15;9.18;;;;;;;23.79;58.02;100436.47;5062583;28;20031;-60
2021/06/13 00:58:55;;;;;;;10.13;9.00;;;;;;;23.63;58.09;100412.31;5068505;28;20028;-60
2021/06/13 01:01:22;;;;;;;9.18;8.27;;;;;;;23.66;58.18;100422.72;5060171;28;20043;-60
2021/06/13 01:03:48;;;;;;;8.63;7.82;;;;;;;23.70;57.81;100439.47;5066175;28;20107;-60
2021/06/13 01:06:27;;;;;;;10.65;8.45;;;;;;;23.73;58.13;100445.09;5065735;28;20032;-60
2021/06/13 01:09:15;;;;;;;9.38;8.38;;;;;;;23.68;58.08;100436.25;5063493;28;20020;-60
2021/06/13 01:12:00;;;;;;;10.07;8.55;;;;;;;23.64;58.02;100427.81;5062390;28;20504;-60
2021/06/13 01:14:36;;;;;;;9.07;8.15;;;;;;;23.61;58.58;100431.38;5067758;28;20410;-60
2021/06/13 01:17:15;;;;;;;9.05;8.15;;;;;;;23.51;58.40;100418.03;5074152;28;20100;-61
2021/06/13 01:20:13;;;;;;;10.85;8.57;;;;;;;23.58;58.60;100435.69;5067387;28;20029;-60
2021/06/13 01:22:57;;;;;;;11.10;8.32;;;;;;;23.54;58.46;100432.00;5066527;28;20040;-60
2021/06/13 01:26:01;;;;;;;8.90;8.02;;;;;;;23.55;58.64;100427.28;5068057;28;20576;-60
2021/06/13 01:28:58;;;;;;;10.65;9.55;;;;;;;23.51;58.63;100421.59;5064459;28;20075;-60
2021/06/13 01:31:52;;;;;;;10.38;9.13;;;;;;;23.48;58.92;100424.31;5067903;28;20566;-60
2021/06/13 01:34:44;;;;;;;10.57;9.50;;;;;;;23.45;58.88;100425.84;5067606;28;20033;-60
2021/06/13 01:37:15;;;;;;;10.25;9.35;;;;;;;23.42;58.88;100430.19;5066701;28;20025;-60
2021/06/13 01:39:43;;;;;;;11.40;10.20;;;;;;;23.40;59.22;100426.97;5062517;28;20044;-61
2021/06/13 01:42:10;;;;;;;12.38;9.85;;;;;;;23.36;59.32;100428.88;5068152;28;20024;-60
2021/06/13 01:44:40;;;;;;;10.77;9.68;;;;;;;23.32;59.45;100429.97;5064891;28;20025;-59
2021/06/13 01:47:08;;;;;;;11.43;10.13;;;;;;;23.16;59.57;100421.63;5066061;28;20120;-60
2021/06/13 01:49:34;;;;;;;11.23;10.05;;;;;;;23.23;59.79;100427.38;5068057;28;20074;-60
2021/06/13 01:52:00;;;;;;;10.45;9.48;;;;;;;23.10;59.86;100415.56;5064816;28;20037;-60
2021/06/13 01:54:30;;;;;;;11.25;9.90;;;;;;;23.20;59.79;100433.69;5064755;28;20032;-60
2021/06/13 01:56:57;;;;;;;11.63;10.52;;;;;;;23.18;59.99;100430.47;5064500;28;20032;-59
2021/06/13 01:59:23;;;;;;;12.43;10.30;;;;;;;23.15;59.93;100437.53;5058465;28;20021;-60
2021/06/13 02:01:51;;;;;;;12.40;10.55;;;;;;;23.13;60.03;100431.53;5062854;28;21270;-60
2021/06/13 02:04:16;;;;;;;11.48;10.38;;;;;;;23.12;60.01;100429.91;5068309;28;20043;-61
2021/06/13 02:06:56;;;;;;;11.93;10.02;;;;;;;23.10;59.93;100435.84;5071810;28;20024;-59
2021/06/13 02:09:23;;;;;;;13.35;10.45;;;;;;;23.03;60.13;100438.47;5070182;28;20016;-60
2021/06/13 02:11:50;;;;;;;11.20;10.07;;;;;;;23.02;60.29;100441.59;5069200;28;20140;-60
2021/06/13 02:14:19;;;;;;;12.30;11.10;;;;;;;22.95;60.22;100431.91;5067973;28;20022;-60
2021/06/13 02:16:46;;;;;;;16.67;10.27;;;;;;;22.95;60.46;100442.25;5073716;28;20162;-59
2021/06/13 02:19:15;;;;;;;11.23;8.55;;;;;;;22.94;60.55;100437.84;5073960;28;20020;-59
2021/06/13 02:21:43;;;;;;;11.98;9.27;;;;;;;22.90;60.50;100432.22;5066468;28;20431;-59
2021/06/13 02:24:10;;;;;;;10.35;8.55;;;;;;;22.87;60.78;100430.16;5067048;28;20435;-59
2021/06/13 02:26:37;;;;;;;9.30;8.40;;;;;;;22.78;60.90;100415.63;5063706;28;20081;-59
2021/06/13 02:29:04;;;;;;;9.70;8.75;;;;;;;22.79;61.18;100428.38;5069606;28;20025;-60
2021/06/13 02:31:32;;;;;;;10.48;8.77;;;;;;;22.80;61.25;100421.66;5070438;28;20020;-59
2021/06/13 02:33:59;;;;;;;12.07;9.10;;;;;;;22.78;61.34;100419.22;5064831;28;20032;-59
2021/06/13 02:36:25;;;;;;;11.98;9.38;;;;;;;22.72;61.04;100409.56;5067343;28;20126;-60
2021/06/13 02:38:55;;;;;;;12.57;10.23;;;;;;;22.73;61.17;100413.16;5068762;28;20435;-61
2021/06/13 02:41:21;;;;;;;10.60;9.60;;;;;;;22.76;61.16;100413.22;5068795;28;20450;-60
2021/06/13 02:43:47;;;;;;;11.13;10.05;;;;;;;22.75;61.13;100408.84;5067273;28;20598;-60
2021/06/13 02:46:13;;;;;;;11.18;9.45;;;;;;;22.74;61.02;100410.00;5069721;28;20481;-59
2021/06/13 02:48:38;;;;;;;12.07;9.88;;;;;;;22.73;61.01;100405.59;5059764;28;20031;-60
2021/06/13 02:51:04;;;;;;;11.32;10.23;;;;;;;22.68;60.95;100400.34;5062332;28;20370;-60
2021/06/13 02:53:44;;;;;;;11.07;10.07;;;;;;;22.70;60.82;100405.50;5064282;28;20044;-60
2021/06/13 02:56:33;;;;;;;13.38;10.07;;;;;;;22.67;60.92;100398.72;5063606;28;20085;-61
2021/06/13 02:59:20;;;;;;;10.98;9.85;;;;;;;22.62;60.97;100407.34;5062676;28;20029;-59
2021/06/13 03:01:48;;;;;;;11.10;9.95;;;;;;;22.58;60.96;100406.44;5065708;28;20035;-62
2021/06/13 03:04:17;;;;;;;11.38;10.02;;;;;;;22.56;61.18;100425.47;5068108;28;20024;-60
2021/06/13 03:06:46;;;;;;;11.57;10.43;;;;;;;22.46;61.13;100413.72;5067003;28;20055;-59
2021/06/13 03:09:12;;;;;;;13.85;10.63;;;;;;;22.46;61.20;100412.91;5064917;28;20414;-60
2021/06/13 03:11:38;;;;;;;10.77;9.73;;;;;;;22.43;61.30;100408.88;5069483;28;20028;-59
2021/06/13 03:14:06;;;;;;;13.05;11.43;;;;;;;22.40;61.07;100414.34;5065583;28;20359;-60
2021/06/13 03:16:33;;;;;;;11.95;10.55;;;;;;;22.36;61.43;100413.41;5070216;28;20427;-60
2021/06/13 03:18:58;;;;;;;11.32;10.27;;;;;;;22.32;61.63;100394.69;5073031;28;20032;-59
2021/06/13 03:21:25;;;;;;;12.88;10.82;;;;;;;22.31;61.45;100398.63;5071926;28;20111;-59
2021/06/13 03:23:51;;;;;;;12.50;10.60;;;;;;;22.27;61.59;100392.16;5074494;28;20063;-60
2021/06/13 03:26:17;;;;;;;12.55;11.00;;;;;;;22.23;61.62;100405.19;5073437;28;20028;-60
2021/06/13 03:28:44;;;;;;;12.43;11.13;;;;;;;22.20;61.69;100399.53;5074552;28;20047;-60
2021/06/13 03:31:12;;;;;;;11.73;10.60;;;;;;;22.17;61.86;100410.19;5075187;28;20028;-60
2021/06/13 03:33:38;;;;;;;12.75;11.02;;;;;;;22.05;61.84;100390.84;5075250;28;20512;-59
2021/06/13 03:36:06;;;;;;;12.80;11.45;;;;;;;22.15;61.85;100417.25;5075449;28;20053;-59
2021/06/13 03:38:32;;;;;;;12.63;11.25;;;;;;;22.10;61.73;100407.22;5074389;28;20029;-61
2021/06/13 03:40:59;;;;;;;14.70;11.18;;;;;;;22.08;61.69;100420.66;5069509;28;20031;-60
2021/06/13 03:43:25;;;;;;;12.25;11.05;;;;;;;22.05;61.89;100421.38;5075606;28;20056;-59
2021/06/13 03:45:51;;;;;;;14.75;10.95;;;;;;;21.99;61.82;100417.22;5067552;28;20032;-59
2021/06/13 03:48:18;;;;;;;12.02;10.65;;;;;;;21.79;61.97;100391.31;5075262;28;20033;-60
2021/06/13 03:50:45;;;;;;;12.07;10.95;;;;;;;21.92;61.94;100417.88;5073282;28;20021;-60
2021/06/13 03:53:12;;;;;;;14.35;10.60;;;;;;;21.84;62.04;100418.84;5070435;28;20032;-59
2021/06/13 03:55:37;;;;;;;11.95;10.70;;;;;;;21.69;62.08;100399.00;5069527;28;20020;-59
2021/06/13 03:58:03;;;;;;;12.85;11.05;;;;;;;21.78;62.28;100421.06;5072041;28;20027;-59
2021/06/13 04:00:30;;;;;;;12.05;10.90;;;;;;;21.73;62.51;100421.31;5074538;28;20070;-59
2021/06/13 04:02:57;;;;;;;11.75;10.55;;;;;;;21.71;62.46;100426.41;5070716;28;20039;-59
2021/06/13 04:05:23;;;;;;;14.40;11.23;;;;;;;21.69;62.51;100426.75;5074094;28;20024;-59
2021/06/13 04:07:49;;;;;;;12.55;10.55;;;;;;;21.69;62.31;100428.72;5070687;28;20037;-59
2021/06/13 04:10:17;;;;;;;12.63;11.13;;;;;;;21.70;62.58;100433.13;5075171;28;20407;-59
2021/06/13 04:12:46;;;;;;;14.13;10.93;;;;;;;21.68;62.74;100429.88;5075185;28;20032;-60
2021/06/13 04:15:12;;;;;;;12.30;11.02;;;;;;;21.62;62.65;100432.09;5071460;28;20476;-60
2021/06/13 04:17:38;;;;;;;12.80;11.60;;;;;;;21.65;62.96;100436.16;5064108;28;20357;-60
2021/06/13 04:20:08;;;;;;;12.00;10.90;;;;;;;21.64;62.93;100432.56;5070944;28;20031;-60
2021/06/13 04:22:36;;;;;;;12.60;11.40;;;;;;;21.63;63.07;100442.03;5063142;28;20033;-60
2021/06/13 04:25:01;;;;;;;12.80;11.50;;;;;;;21.57;62.92;100437.88;5066334;28;20109;-62
2021/06/13 04:27:29;;;;;;;13.25;11.48;;;;;;;21.58;62.95;100441.47;5061636;28;20107;-59
2021/06/13 04:30:00;;;;;;;12.73;11.52;;;;;;;21.58;63.16;100445.06;5064410;28;20013;-59
2021/06/13 04:32:26;;;;;;;14.18;11.50;;;;;;;21.57;63.23;100450.97;5071184;28;20035;-59
2021/06/13 04:34:51;;;;;;;14.48;11.98;;;;;;;21.53;63.28;100457.19;5071695;28;20048;-60
2021/06/13 04:37:17;;;;;;;12.63;11.40;;;;;;;21.50;63.40;100452.34;5075605;28;20729;-60
2021/06/13 04:39:43;;;;;;;12.75;11.45;;;;;;;21.35;63.55;100442.00;5064807;28;20021;-62
2021/06/13 04:42:09;;;;;;;14.50;11.52;;;;;;;21.50;63.43;100465.41;5081871;28;20020;-60
2021/06/13 04:44:36;;;;;;;13.70;11.30;;;;;;;21.51;63.58;100461.50;5085931;28;20031;-60
2021/06/13 04:47:03;;;;;;;14.13;10.82;;;;;;;21.51;63.91;100464.25;5069462;28;20029;-62
2021/06/13 04:49:28;;;;;;;12.35;11.05;;;;;;;21.50;63.90;100468.19;5069969;28;20171;-61
2021/06/13 04:51:57;;;;;;;16.25;11.30;;;;;;;21.52;64.16;100474.19;5072891;28;20024;-59
2021/06/13 04:54:32;;;;;;;16.70;10.38;;;;;;;21.53;64.39;100471.06;5075048;28;20424;-60
2021/06/13 04:57:21;;;;;;;14.77;10.77;;;;;;;21.56;64.47;100469.56;5074847;28;20024;-59
2021/06/13 04:59:46;;;;;;;12.32;10.15;;;;;;;21.58;64.54;100472.00;5077594;28;20028;-60
2021/06/13 05:02:13;;;;;;;12.57;10.00;;;;;;;21.59;64.68;100470.84;5066204;28;20050;-60
2021/06/13 05:04:38;;;;;;;12.38;9.45;;;;;;;21.60;64.56;100469.69;5073461;28;20036;-60
2021/06/13 05:07:05;;;;;;;11.75;9.73;;;;;;;21.64;64.86;100473.38;5076130;28;20028;-60
2021/06/13 05:09:31;;;;;;;11.38;9.85;;;;;;;21.65;64.80;100472.22;5074545;28;20075;-61
2021/06/13 05:11:57;;;;;;;14.30;10.00;;;;;;;21.66;64.72;100480.19;5078074;28;20078;-60
2021/06/13 05:14:22;;;;;;;11.25;9.68;;;;;;;21.66;64.68;100477.41;5078218;28;20131;-59
2021/06/13 05:16:48;;;;;;;10.88;9.88;;;;;;;21.65;64.87;100483.31;5077688;28;20020;-60
2021/06/13 05:19:13;;;;;;;12.15;9.05;;;;;;;21.61;64.87;100483.19;5080433;28;20461;-60
2021/06/13 05:21:39;;;;;;;13.80;9.13;;;;;;;21.58;65.20;100483.09;5079336;28;20427;-59
2021/06/13 05:24:05;;;;;;;14.07;9.32;;;;;;;21.57;65.25;100475.91;5065638;28;20034;-60
2021/06/13 05:26:31;;;;;;;12.18;9.88;;;;;;;21.55;65.16;100473.47;5078355;28;20031;-62
2021/06/13 05:28:57;;;;;;;11.15;8.90;;;;;;;21.51;65.20;100456.72;5077151;28;20016;-59
2021/06/13 05:31:23;;;;;;;14.13;8.77;;;;;;;21.63;65.08;100469.00;5077586;28;20455;-59
2021/06/13 05:33:48;;;;;;;12.07;9.63;;;;;;;21.62;65.15;100473.72;5067698;28;20438;-60
2021/06/13 05:36:14;;;;;;;11.18;9.63;;;;;;;21.62;65.22;100479.25;5068754;28;20066;-61
2021/06/13 05:38:41;;;;;;;10.60;9.48;;;;;;;21.61;65.15;100477.66;5074015;28;20043;-60
2021/06/13 05:41:09;;;;;;;12.57;9.88;;;;;;;21.60;65.21;100486.31;5069669;28;20026;-60
2021/06/13 05:43:34;;;;;;;10.55;9.32;;;;;;;21.56;65.18;100493.72;5074024;28;20377;-60
2021/06/13 05:46:02;;;;;;;11.88;9.85;;;;;;;21.54;65.23;100485.72;5065740;28;20066;-60
2021/06/13 05:48:27;;;;;;;10.50;9.40;;;;;;;21.56;65.18;100485.41;5075403;28;20050;-59
2021/06/13 05:50:53;;;;;;;12.98;9.60;;;;;;;21.49;65.27;100461.03;5069383;28;20024;-60
2021/06/13 05:53:19;;;;;;;10.70;9.70;;;;;;;21.53;65.25;100470.25;5071347;28;20048;-60
2021/06/13 05:55:44;;;;;;;11.52;9.82;;;;;;;21.73;64.89;100484.31;5066506;28;20135;-60
2021/06/13 05:58:09;;;;;;;13.02;9.30;;;;;;;21.79;64.83;100488.44;5075854;28;20032;-60
2021/06/13 06:00:37;;;;;;;11.60;9.30;;;;;;;21.75;64.75;100479.25;5068207;28;20024;-60
2021/06/13 06:03:03;;;;;;;12.43;9.43;;;;;;;21.83;64.61;100490.19;5071720;28;20032;-61
2021/06/13 06:05:29;;;;;;;10.98;9.65;;;;;;;21.85;64.64;100492.63;5075729;28;20044;-60
2021/06/13 06:07:54;;;;;;;11.27;9.68;;;;;;;21.87;64.70;100490.28;5072017;28;20052;-60
2021/06/13 06:10:22;;;;;;;9.90;8.90;;;;;;;21.89;64.53;100493.50;5066532;28;20025;-60
2021/06/13 06:12:48;;;;;;;9.90;8.90;;;;;;;21.92;64.50;100494.75;5064523;28;20055;-60
2021/06/13 06:15:16;;;;;;;10.65;9.23;;;;;;;21.96;64.57;100493.72;5074896;28;20028;-59
2021/06/13 06:17:42;;;;;;;9.63;8.63;;;;;;;22.01;64.50;100489.88;5070145;28;20033;-60
2021/06/13 06:20:09;;;;;;;12.27;8.60;;;;;;;22.06;64.46;100491.59;5082477;28;20126;-60
2021/06/13 06:22:35;;;;;;;11.13;8.88;;;;;;;22.08;64.37;100495.63;5078022;28;20475;-60
2021/06/13 06:25:00;;;;;;;10.75;9.65;;;;;;;22.17;64.08;100503.81;5061489;28;20404;-61
2021/06/13 06:27:25;;;;;;;12.45;9.23;;;;;;;21.83;64.03;100456.06;5072202;28;20031;-60
2021/06/13 06:29:51;;;;;;;13.98;9.63;;;;;;;22.26;63.95;100500.84;5077075;28;20052;-60
2021/06/13 06:32:16;;;;;;;12.13;9.75;;;;;;;22.25;63.67;100499.22;5075259;28;20388;-61
2021/06/13 06:34:42;;;;;;;16.20;11.43;;;;;;;22.13;63.90;100481.50;5067064;28;20551;-61
2021/06/13 06:37:07;;;;;;;15.30;11.85;;;;;;;22.21;64.06;100487.22;5070845;28;20427;-60
2021/06/13 06:39:33;;;;;;;15.43;10.43;;;;;;;22.32;63.79;100493.84;5070019;28;20020;-61
2021/06/13 06:41:59;;;;;;;10.65;9.50;;;;;;;22.35;63.71;100487.59;5078396;28;20012;-61
2021/06/13 06:44:24;;;;;;;12.30;9.20;;;;;;;22.37;63.58;100493.63;5078841;28;20028;-61
2021/06/13 06:46:50;;;;;;;15.68;9.85;;;;;;;22.44;63.75;100491.06;5076892;28;20362;-60
2021/06/13 06:49:16;;;;;;;9.77;8.95;;;;;;;22.45;63.71;100489.06;5076994;28;20021;-61
2021/06/13 06:51:41;;;;;;;14.00;9.57;;;;;;;22.47;63.72;100483.97;5077083;28;20031;-61
2021/06/13 06:54:07;;;;;;;10.02;9.02;;;;;;;22.50;63.76;100490.78;5076882;28;20132;-60
2021/06/13 06:56:33;;;;;;;11.05;9.32;;;;;;;22.55;63.70;100482.19;5076756;28;20020;-61
2021/06/13 06:58:58;;;;;;;12.95;9.60;;;;;;;22.59;63.42;100480.28;5076746;28;20051;-60
2021/06/13 07:01:25;;;;;;;13.65;9.85;;;;;;;22.59;63.58;100488.63;5076654;28;20054;-60
2021/06/13 07:03:50;;;;;;;17.27;9.38;;;;;;;22.58;63.79;100487.84;5075926;28;20445;-60
2021/06/13 07:06:16;;;;;;;9.70;8.80;;;;;;;22.59;63.64;100492.22;5076884;28;20070;-62
2021/06/13 07:08:41;;;;;;;10.50;9.27;;;;;;;22.63;63.67;100500.66;5075920;28;20028;-60
2021/06/13 07:11:07;;;;;;;11.20;9.15;;;;;;;22.56;63.60;100481.81;5076641;28;20025;-62
2021/06/13 07:13:34;;;;;;;12.07;9.93;;;;;;;22.73;63.81;100500.09;5076355;28;20025;-60
2021/06/13 07:16:00;;;;;;;12.48;9.45;;;;;;;22.76;63.72;100504.94;5076656;28;20023;-60
2021/06/13 07:18:26;;;;;;;10.38;8.95;;;;;;;22.81;63.44;100505.84;5078344;28;20040;-60
2021/06/13 07:20:53;;;;;;;10.27;9.27;;;;;;;22.88;63.19;100509.59;5091850;28;20063;-60
2021/06/13 07:23:18;;;;;;;11.48;8.75;;;;;;;22.95;63.11;100498.66;5080825;28;20055;-60
2021/06/13 07:25:44;;;;;;;12.77;9.85;;;;;;;23.03;63.10;100502.41;5076372;28;20032;-60
2021/06/13 07:28:09;;;;;;;11.02;8.85;;;;;;;23.09;62.89;100492.63;5076013;28;20722;-60
2021/06/13 07:30:35;;;;;;;10.35;9.23;;;;;;;23.14;62.65;100499.88;5073106;28;20099;-60
2021/06/13 07:33:04;;;;;;;12.52;10.27;;;;;;;23.20;62.57;100504.00;5073790;28;20028;-61
2021/06/13 07:35:30;;;;;;;13.13;9.52;;;;;;;23.23;62.64;100502.47;5076309;28;20047;-60
2021/06/13 07:37:56;;;;;;;11.70;9.43;;;;;;;23.31;62.40;100501.47;5076143;28;20045;-60
2021/06/13 07:40:22;;;;;;;9.70;8.70;;;;;;;23.38;62.57;100507.22;5068715;28;20020;-60
2021/06/13 07:42:49;;;;;;;12.07;9.18;;;;;;;23.38;62.28;100498.06;5079792;28;20036;-60
2021/06/13 07:45:15;;;;;;;10.25;8.82;;;;;;;23.48;62.15;100503.06;5075993;28;20031;-60
2021/06/13 07:47:41;;;;;;;13.70;9.10;;;;;;;23.53;61.84;100505.53;5074972;28;20032;-60
2021/06/13 07:50:10;;;;;;;10.77;9.07;;;;;;;23.59;62.08;100503.28;5076050;28;20097;-60
2021/06/13 07:52:36;;;;;;;11.27;9.35;;;;;;;23.66;61.70;100509.00;5075132;28;20087;-60
2021/06/13 07:55:02;;;;;;;12.63;8.50;;;;;;;23.72;61.91;100504.75;5076075;28;20031;-63
2021/06/13 07:57:27;;;;;;;10.15;8.90;;;;;;;23.77;61.89;100506.41;5064584;28;20028;-60
2021/06/13 07:59:53;;;;;;;11.00;9.15;;;;;;;23.82;61.59;100510.91;5075236;28;20027;-62
2021/06/13 08:02:18;;;;;;;10.25;9.25;;;;;;;23.87;61.45;100516.97;5074879;28;20038;-60
2021/06/13 08:04:47;;;;;;;10.45;8.65;;;;;;;23.93;61.61;100508.31;5076011;28;20100;-60
2021/06/13 08:07:13;;;;;;;12.77;9.05;;;;;;;23.98;61.63;100508.88;5066188;28;20039;-61
2021/06/13 08:09:38;;;;;;;12.93;9.52;;;;;;;24.03;61.30;100507.75;5072958;28;20058;-61
2021/06/13 08:12:04;;;;;;;12.10;9.75;;;;;;;24.08;61.48;100501.91;5075582;28;20024;-60
2021/06/13 08:14:30;;;;;;;16.83;9.45;;;;;;;24.14;60.86;100499.59;5074759;28;20035;-60
2021/06/13 08:16:55;;;;;;;11.45;10.10;;;;;;;24.18;60.73;100495.72;5080619;28;20452;-60
2021/06/13 08:19:21;;;;;;;17.92;15.45;;;;;;;24.24;60.51;100492.66;5079582;28;20036;-60
2021/06/13 08:21:49;;;;;;;15.57;14.05;;;;;;;24.29;60.39;100500.69;5077938;28;20024;-62
2021/06/13 08:24:14;;;;;;;35.50;32.30;;;;;;;24.33;60.51;100496.78;5074873;28;20461;-60
2021/06/13 08:26:39;;;;;;;10.88;9.75;;;;;;;24.39;59.82;100494.50;5069438;28;20473;-60
2021/06/13 08:29:05;;;;;;;11.15;10.10;;;;;;;24.44;59.91;100496.19;5071515;28;20021;-60
2021/06/13 08:31:30;;;;;;;13.65;12.27;;;;;;;24.44;60.04;100487.81;5075185;28;20016;-62
2021/06/13 08:33:57;;;;;;;10.95;9.75;;;;;;;24.56;59.68;100492.41;5075293;28;20037;-60
2021/06/13 08:36:23;;;;;;;38.72;35.22;;;;;;;24.62;59.66;100486.16;5075486;28;20052;-61
2021/06/13 08:38:51;;;;;;;14.98;13.45;;;;;;;24.55;59.33;100468.50;5073941;28;20029;-60
2021/06/13 08:41:17;;;;;;;19.70;17.88;;;;;;;24.70;59.09;100487.09;5075503;28;20054;-62
2021/06/13 08:43:42;;;;;;;32.03;29.05;;;;;;;24.75;59.11;100494.34;5088292;28;20037;-60
2021/06/13 08:46:08;;;;;;;25.17;22.73;;;;;;;24.79;58.83;100489.63;5075353;28;20031;-61
2021/06/13 08:48:34;;;;;;;15.75;12.75;;;;;;;24.82;58.47;100491.66;5075025;28;20103;-60
2021/06/13 08:51:01;;;;;;;15.80;13.85;;;;;;;24.81;57.95;100487.25;5075095;28;20048;-60
2021/06/13 08:53:26;;;;;;;9.40;8.45;;;;;;;24.91;58.16;100491.41;5075221;28;20027;-60
2021/06/13 08:55:53;;;;;;;44.47;40.42;;;;;;;24.96;57.74;100489.09;5075198;28;20024;-61
2021/06/13 08:58:18;;;;;;;9.77;8.60;;;;;;;25.02;57.54;100483.22;5075039;28;20103;-60
2021/06/13 09:00:46;;;;;;;39.15;35.58;;;;;;;25.04;57.74;100472.50;5075484;28;20051;-60
2021/06/13 09:03:13;;;;;;;30.60;27.90;;;;;;;25.09;57.51;100475.72;5074977;28;20028;-60
2021/06/13 09:05:39;;;;;;;21.52;19.48;;;;;;;25.15;57.54;100481.78;5073935;28;20016;-60
2021/06/13 09:08:13;;;;;;;27.45;24.60;;;;;;;25.18;57.37;100469.06;5076712;28;20017;-61
2021/06/13 09:10:46;;;;;;;36.38;32.95;;;;;;;25.24;57.56;100476.75;5070301;28;20020;-60
2021/06/13 09:13:11;;;;;;;38.53;34.85;;;;;;;25.26;57.75;100471.59;5066631;28;20472;-60
2021/06/13 09:15:50;;;;;;;24.30;22.00;;;;;;;25.32;57.36;100465.69;5065523;28;20035;-59
2021/06/13 09:18:43;;;;;;;34.95;31.67;;;;;;;25.38;57.12;100464.16;5065768;28;20016;-62
2021/06/13 09:21:29;;;;;;;6.53;5.78;;;;;;;25.42;56.41;100460.25;5068667;28;20024;-67
2021/06/13 09:23:54;;;;;;;6.40;5.75;;;;;;;25.54;56.50;100461.22;5065186;28;20088;-67
2021/06/13 09:26:25;;;;;;;6.82;5.85;;;;;;;25.64;56.53;100456.94;5067475;28;20088;-67
2021/06/13 09:28:51;;;;;;;6.32;5.72;;;;;;;25.71;56.05;100463.44;5067017;28;20029;-67
2021/06/13 09:31:24;;;;;;;8.25;6.32;;;;;;;25.82;55.92;100462.75;5068091;28;20031;-67
2021/06/13 09:33:51;;;;;;;6.80;5.72;;;;;;;25.90;55.24;100461.66;5068089;28;20082;-67
2021/06/13 09:36:19;;;;;;;6.78;5.70;;;;;;;25.84;55.06;100429.63;5067210;28;20058;-67
2021/06/13 09:38:47;;;;;;;6.00;5.43;;;;;;;26.13;54.13;100452.31;5066342;28;20079;-67
2021/06/13 09:41:17;;;;;;;7.90;6.03;;;;;;;26.18;54.60;100444.41;5065429;28;20025;-67
2021/06/13 09:44:05;;;;;;;6.60;6.00;;;;;;;26.31;54.38;100447.72;5073686;28;20090;-67
2021/06/13 09:46:40;;;;;;;6.30;5.80;;;;;;;26.41;54.39;100446.19;5068287;28;20024;-70
2021/06/13 09:49:14;;;;;;;7.00;5.53;;;;;;;26.49;54.15;100447.03;5068422;28;20486;-67
2021/06/13 09:51:47;;;;;;;7.78;7.05;;;;;;;26.58;54.33;100447.50;5067614;28;20322;-68
2021/06/13 09:54:25;;;;;;;7.70;6.05;;;;;;;26.63;53.80;100437.97;5068229;28;20568;-67
2021/06/13 09:56:53;;;;;;;6.18;5.57;;;;;;;26.64;54.27;100437.59;5066157;28;20070;-68
2021/06/13 09:59:37;;;;;;;5.30;4.85;;;;;;;26.73;52.71;100428.84;5066055;28;20108;-68
2021/06/13 10:02:04;;;;;;;5.80;5.20;;;;;;;26.79;52.47;100427.31;5071530;28;20024;-67
2021/06/13 10:04:36;;;;;;;5.30;4.80;;;;;;;26.87;52.45;100431.00;5067780;28;20012;-68
2021/06/13 10:07:16;;;;;;;6.07;5.03;;;;;;;26.92;52.16;100424.22;5070520;28;20043;-69
2021/06/13 10:09:45;;;;;;;5.05;3.17;;;;;;;26.94;50.70;100427.44;5068059;28;20032;-67
2021/06/13 10:12:14;;;;;;;6.82;6.03;;;;;;;26.99;50.30;100427.84;5067302;28;20028;-68
2021/06/13 10:14:40;;;;;;;9.02;4.00;;;;;;;26.98;50.19;100419.84;5064077;28;20025;-67
2021/06/13 10:17:06;;;;;;;5.82;3.03;;;;;;;26.98;48.91;100412.25;5060006;28;20040;-67
2021/06/13 10:19:44;;;;;;;7.68;3.70;;;;;;;27.21;47.66;100421.56;5062898;28;20108;-69
2021/06/13 10:22:11;;;;;;;5.97;4.00;;;;;;;27.14;47.66;100397.97;5060464;28;20021;-68
2021/06/13 10:24:39;;;;;;;3.95;3.08;;;;;;;27.35;47.95;100427.25;5069080;28;20080;-66
2021/06/13 10:27:07;;;;;;;5.45;3.35;;;;;;;27.41;46.87;100422.88;5060607;28;20032;-68
2021/06/13 10:29:35;;;;;;;8.65;3.70;;;;;;;27.47;47.18;100424.13;5069408;28;20495;-66
2021/06/13 10:32:03;;;;;;;5.53;3.33;;;;;;;27.57;46.63;100436.53;5063714;28;20021;-66
2021/06/13 10:34:30;;;;;;;4.43;3.70;;;;;;;27.65;46.13;100431.78;5062572;28;20404;-65
2021/06/13 10:36:58;;;;;;;5.50;3.90;;;;;;;27.75;46.25;100435.81;5064727;28;20074;-65
2021/06/13 10:39:30;;;;;;;4.88;3.47;;;;;;;27.83;45.66;100429.03;5062458;28;20477;-66
2021/06/13 10:41:56;;;;;;;4.88;3.28;;;;;;;27.91;45.35;100433.44;5063784;28;20024;-65
2021/06/13 10:44:28;;;;;;;3.45;2.78;;;;;;;27.86;44.60;100419.84;5066031;28;20056;-65
2021/06/13 10:47:07;;;;;;;3.30;3.00;;;;;;;27.98;44.46;100424.25;5077000;28;20033;-65
2021/06/13 10:49:33;;;;;;;5.13;3.67;;;;;;;28.02;44.56;100421.44;5071425;28;20023;-65
2021/06/13 10:52:16;;;;;;;5.53;3.35;;;;;;;28.06;45.52;100422.25;5063781;28;20099;-64
2021/06/13 10:55:02;;;;;;;5.72;3.60;;;;;;;28.08;46.34;100422.69;5076325;28;20017;-64
2021/06/13 10:57:43;;;;;;;5.32;3.40;;;;;;;28.04;45.29;100405.84;5062157;28;20035;-65
2021/06/13 11:00:18;;;;;;;3.00;2.80;;;;;;;28.23;44.39;100415.09;5062337;28;20029;-65
2021/06/13 11:02:43;;;;;;;2.95;2.65;;;;;;;28.31;44.08;100416.69;5065641;28;20024;-65
2021/06/13 11:05:09;;;;;;;4.78;2.67;;;;;;;28.41;43.53;100420.69;5071465;28;20276;-64
2021/06/13 11:07:44;;;;;;;3.60;2.80;;;;;;;28.47;43.42;100416.28;5057523;28;20104;-65
2021/06/13 11:10:15;;;;;;;4.88;2.70;;;;;;;28.49;42.50;100419.50;5071342;28;20024;-65
2021/06/13 11:12:58;;;;;;;2.90;2.60;;;;;;;28.56;41.22;100415.91;5074916;28;20035;-66
2021/06/13 11:15:35;;;;;;;4.88;2.35;;;;;;;28.62;41.56;100416.28;5062758;28;20055;-65
2021/06/13 11:18:04;;;;;;;2.78;2.40;;;;;;;28.62;40.74;100400.25;5073272;28;20024;-67
2021/06/13 11:23:27;;;;;;;2.83;2.50;;;;;;;28.76;39.65;100404.28;5060391;28;20028;-64
2021/06/13 11:25:57;;;;;;;5.68;5.03;;;;;;;28.77;40.38;100401.06;5059184;28;20048;-65